sensor_id;sensor_type;location;lat;lon;timestamp;pressure;altitude;pressure_sealevel;temperature;humidity
32761;BME280;19126;47.472;7.850;2023-11-22T00:01:48;96822.66;;;5.42;29.30
32761;BME280;19126;47.472;7.850;2023-11-22T00:04:18;96812.09;;;5.44;29.30
32761;BME280;19126;47.472;7.850;2023-11-22T00:06:46;96819.09;;;5.43;28.76
32761;BME280;19126;47.472;7.850;2023-11-22T00:09:13;96811.97;;;5.46;29.05
32761;BME280;19126;47.472;7.850;2023-11-22T00:11:41;96811.00;;;5.47;28.75
32761;BME280;19126;47.472;7.850;2023-11-22T00:14:08;96811.97;;;5.46;28.78
32761;BME280;19126;47.472;7.850;2023-11-22T00:16:36;96809.38;;;5.46;28.01
32761;BME280;19126;47.472;7.850;2023-11-22T00:19:06;96805.94;;;5.45;28.42
32761;BME280;19126;47.472;7.850;2023-11-22T00:21:35;96811.00;;;5.47;28.00
32761;BME280;19126;47.472;7.850;2023-11-22T00:24:03;96812.66;;;5.48;27.40
32761;BME280;19126;47.472;7.850;2023-11-22T00:26:31;96806.75;;;5.46;27.43
32761;BME280;19126;47.472;7.850;2023-11-22T00:28:59;96814.59;;;5.46;27.22
32761;BME280;19126;47.472;7.850;2023-11-22T00:31:29;96812.78;;;5.46;26.63
32761;BME280;19126;47.472;7.850;2023-11-22T00:33:57;96810.19;;;5.46;26.77
32761;BME280;19126;47.472;7.850;2023-11-22T00:36:25;96815.25;;;5.48;26.75
32761;BME280;19126;47.472;7.850;2023-11-22T00:38:54;96809.75;;;5.41;26.72
32761;BME280;19126;47.472;7.850;2023-11-22T00:41:22;96817.03;;;5.47;26.41
32761;BME280;19126;47.472;7.850;2023-11-22T00:43:50;96814.59;;;5.46;26.17
32761;BME280;19126;47.472;7.850;2023-11-22T00:46:18;96812.09;;;5.44;26.58
32761;BME280;19126;47.472;7.850;2023-11-22T00:48:45;96815.25;;;5.48;26.32
32761;BME280;19126;47.472;7.850;2023-11-22T00:51:13;96819.78;;;5.46;26.20
32761;BME280;19126;47.472;7.850;2023-11-22T00:53:42;96823.34;;;5.45;25.67
32761;BME280;19126;47.472;7.850;2023-11-22T00:56:11;96814.00;;;5.42;25.98
32761;BME280;19126;47.472;7.850;2023-11-22T00:58:39;96817.72;;;5.39;26.04
32761;BME280;19126;47.472;7.850;2023-11-22T01:01:07;96824.59;;;5.40;25.78
32761;BME280;19126;47.472;7.850;2023-11-22T01:03:35;96824.31;;;5.43;25.52
32761;BME280;19126;47.472;7.850;2023-11-22T01:06:02;96832.81;;;5.46;25.23
32761;BME280;19126;47.472;7.850;2023-11-22T01:08:32;96832.94;;;5.44;25.11
32761;BME280;19126;47.472;7.850;2023-11-22T01:11:00;96839.00;;;5.45;25.19
32761;BME280;19126;47.472;7.850;2023-11-22T01:13:31;96833.91;;;5.43;25.17
32761;BME280;19126;47.472;7.850;2023-11-22T01:15:58;96839.00;;;5.45;24.63
32761;BME280;19126;47.472;7.850;2023-11-22T01:18:28;96833.09;;;5.42;24.37
32761;BME280;19126;47.472;7.850;2023-11-22T01:20:56;96845.84;;;5.46;24.58
32761;BME280;19126;47.472;7.850;2023-11-22T01:23:24;96845.41;;;5.50;24.25
32761;BME280;19126;47.472;7.850;2023-11-22T01:25:51;96846.66;;;5.46;24.62
32761;BME280;19126;47.472;7.850;2023-11-22T01:28:20;96850.63;;;5.50;24.64
32761;BME280;19126;47.472;7.850;2023-11-22T01:30:49;96851.31;;;5.52;24.59
32761;BME280;19126;47.472;7.850;2023-11-22T01:33:17;96848.88;;;5.51;24.93
32761;BME280;19126;47.472;7.850;2023-11-22T01:35:47;96856.53;;;5.52;24.45
32761;BME280;19126;47.472;7.850;2023-11-22T01:38:16;96848.88;;;5.51;24.46
32761;BME280;19126;47.472;7.850;2023-11-22T01:40:45;96848.88;;;5.51;24.62
32761;BME280;19126;47.472;7.850;2023-11-22T01:43:14;96856.41;;;5.54;24.16
32761;BME280;19126;47.472;7.850;2023-11-22T01:45:43;96857.22;;;5.54;24.46
32761;BME280;19126;47.472;7.850;2023-11-22T01:48:13;96849.00;;;5.49;24.24
32761;BME280;19126;47.472;7.850;2023-11-22T01:50:42;96850.34;;;5.53;24.23
32761;BME280;19126;47.472;7.850;2023-11-22T01:53:12;96855.72;;;5.52;24.42
32761;BME280;19126;47.472;7.850;2023-11-22T01:55:43;96852.44;;;5.50;24.60
32761;BME280;19126;47.472;7.850;2023-11-22T01:58:12;96843.94;;;5.48;24.24
32761;BME280;19126;47.472;7.850;2023-11-22T02:00:48;96844.19;;;5.45;24.62
32761;BME280;19126;47.472;7.850;2023-11-22T02:03:18;96855.16;;;5.48;23.79
32761;BME280;19126;47.472;7.850;2023-11-22T02:05:47;96845.97;;;5.44;24.35
32761;BME280;19126;47.472;7.850;2023-11-22T02:08:15;96841.03;;;5.41;24.12
32761;BME280;19126;47.472;7.850;2023-11-22T02:10:44;96841.19;;;5.39;24.19
32761;BME280;19126;47.472;7.850;2023-11-22T02:13:15;96844.47;;;5.41;24.08
32761;BME280;19126;47.472;7.850;2023-11-22T02:15:43;96844.31;;;5.43;24.13
32761;BME280;19126;47.472;7.850;2023-11-22T02:18:12;96832.69;;;5.37;24.10
32761;BME280;19126;47.472;7.850;2023-11-22T02:20:43;96836.66;;;5.41;24.38
32761;BME280;19126;47.472;7.850;2023-11-22T02:23:12;96835.81;;;5.41;23.63
32761;BME280;19126;47.472;7.850;2023-11-22T02:25:39;96833.63;;;5.36;23.71
32761;BME280;19126;47.472;7.850;2023-11-22T02:28:07;96832.00;;;5.35;23.65
32761;BME280;19126;47.472;7.850;2023-11-22T02:30:35;96842.13;;;5.38;24.00
32761;BME280;19126;47.472;7.850;2023-11-22T02:33:03;96833.75;;;5.35;23.80
32761;BME280;19126;47.472;7.850;2023-11-22T02:35:33;96839.94;;;5.34;23.50
32761;BME280;19126;47.472;7.850;2023-11-22T02:38:01;96838.44;;;5.31;23.68
32761;BME280;19126;47.472;7.850;2023-11-22T02:40:30;96848.00;;;5.31;23.84
32761;BME280;19126;47.472;7.850;2023-11-22T02:42:58;96845.53;;;5.29;23.65
32761;BME280;19126;47.472;7.850;2023-11-22T02:45:28;96849.94;;;5.28;24.09
32761;BME280;19126;47.472;7.850;2023-11-22T02:47:56;96855.94;;;5.29;23.59
32761;BME280;19126;47.472;7.850;2023-11-22T02:50:25;96846.63;;;5.26;23.88
32761;BME280;19126;47.472;7.850;2023-11-22T02:52:53;96857.47;;;5.32;24.03
32761;BME280;19126;47.472;7.850;2023-11-22T02:55:21;96854.75;;;5.33;23.98
32761;BME280;19126;47.472;7.850;2023-11-22T02:57:51;96849.66;;;5.32;23.82
32761;BME280;19126;47.472;7.850;2023-11-22T03:00:19;96854.47;;;5.36;23.74
32761;BME280;19126;47.472;7.850;2023-11-22T03:02:47;96861.19;;;5.39;23.55
32761;BME280;19126;47.472;7.850;2023-11-22T03:05:18;96865.16;;;5.43;23.67
32761;BME280;19126;47.472;7.850;2023-11-22T03:07:45;96863.94;;;5.37;23.38
32761;BME280;19126;47.472;7.850;2023-11-22T03:10:13;96861.19;;;5.39;23.80
32761;BME280;19126;47.472;7.850;2023-11-22T03:12:44;96865.59;;;5.38;23.51
32761;BME280;19126;47.472;7.850;2023-11-22T03:15:13;96861.34;;;5.37;24.08
32761;BME280;19126;47.472;7.850;2023-11-22T03:17:41;96864.75;;;5.38;23.72
32761;BME280;19126;47.472;7.850;2023-11-22T03:20:10;96872.56;;;5.38;23.76
32761;BME280;19126;47.472;7.850;2023-11-22T03:22:38;96863.09;;;5.37;23.81
32761;BME280;19126;47.472;7.850;2023-11-22T03:25:07;96869.16;;;5.37;23.27
32761;BME280;19126;47.472;7.850;2023-11-22T03:27:36;96871.75;;;5.37;23.37
32761;BME280;19126;47.472;7.850;2023-11-22T03:30:05;96870.78;;;5.38;23.83
32761;BME280;19126;47.472;7.850;2023-11-22T03:32:39;96873.66;;;5.35;23.57
32761;BME280;19126;47.472;7.850;2023-11-22T03:35:08;96878.72;;;5.37;23.30
32761;BME280;19126;47.472;7.850;2023-11-22T03:37:36;96886.97;;;5.42;23.12
32761;BME280;19126;47.472;7.850;2023-11-22T03:40:06;96894.94;;;5.40;23.23
32761;BME280;19126;47.472;7.850;2023-11-22T03:42:36;96903.97;;;5.36;23.12
32761;BME280;19126;47.472;7.850;2023-11-22T03:45:06;96911.91;;;5.35;23.27
32761;BME280;19126;47.472;7.850;2023-11-22T03:47:34;96903.28;;;5.34;23.13
32761;BME280;19126;47.472;7.850;2023-11-22T03:50:07;96911.91;;;5.35;23.35
32761;BME280;19126;47.472;7.850;2023-11-22T03:52:36;96917.81;;;5.37;23.20
32761;BME280;19126;47.472;7.850;2023-11-22T03:55:05;96910.69;;;5.39;22.93
32761;BME280;19126;47.472;7.850;2023-11-22T03:57:33;96903.69;;;5.39;22.83
32761;BME280;19126;47.472;7.850;2023-11-22T04:00:01;96907.69;;;5.43;22.78
32761;BME280;19126;47.472;7.850;2023-11-22T04:02:29;96910.28;;;5.43;23.01
32761;BME280;19126;47.472;7.850;2023-11-22T04:04:57;96907.97;;;5.40;22.99
32761;BME280;19126;47.472;7.850;2023-11-22T04:07:26;96913.84;;;5.42;22.62
32761;BME280;19126;47.472;7.850;2023-11-22T04:09:54;96905.34;;;5.40;22.64
32761;BME280;19126;47.472;7.850;2023-11-22T04:12:22;96912.91;;;5.43;22.31
32761;BME280;19126;47.472;7.850;2023-11-22T04:14:51;96919.06;;;5.42;22.21
32761;BME280;19126;47.472;7.850;2023-11-22T04:17:19;96909.88;;;5.38;22.08
32761;BME280;19126;47.472;7.850;2023-11-22T04:19:47;96923.31;;;5.43;22.50
32761;BME280;19126;47.472;7.850;2023-11-22T04:22:14;96925.91;;;5.43;22.45
32761;BME280;19126;47.472;7.850;2023-11-22T04:24:43;96921.41;;;5.46;22.25
32761;BME280;19126;47.472;7.850;2023-11-22T04:27:12;96930.44;;;5.41;22.06
32761;BME280;19126;47.472;7.850;2023-11-22T04:29:40;96922.47;;;5.43;23.13
32761;BME280;19126;47.472;7.850;2023-11-22T04:32:08;96938.69;;;5.47;22.67
32761;BME280;19126;47.472;7.850;2023-11-22T04:34:36;96934.16;;;5.49;22.56
32761;BME280;19126;47.472;7.850;2023-11-22T04:37:04;96948.69;;;5.51;22.20
32761;BME280;19126;47.472;7.850;2023-11-22T04:39:32;96952.94;;;5.52;22.17
32761;BME280;19126;47.472;7.850;2023-11-22T04:42:02;96949.53;;;5.52;22.45
32761;BME280;19126;47.472;7.850;2023-11-22T04:44:29;96949.38;;;5.53;22.32
32761;BME280;19126;47.472;7.850;2023-11-22T04:46:58;96957.19;;;5.53;22.29
32761;BME280;19126;47.472;7.850;2023-11-22T04:49:26;96965.00;;;5.53;22.38
32761;BME280;19126;47.472;7.850;2023-11-22T04:51:53;96965.84;;;5.54;22.15
32761;BME280;19126;47.472;7.850;2023-11-22T04:54:24;96957.34;;;5.52;22.05
32761;BME280;19126;47.472;7.850;2023-11-22T04:56:52;96960.63;;;5.54;22.32
32761;BME280;19126;47.472;7.850;2023-11-22T04:59:21;96954.59;;;5.53;22.17
32761;BME280;19126;47.472;7.850;2023-11-22T05:01:49;96948.00;;;5.49;22.10
32761;BME280;19126;47.472;7.850;2023-11-22T05:04:17;96956.38;;;5.53;21.97
32761;BME280;19126;47.472;7.850;2023-11-22T05:06:45;96959.00;;;5.53;21.93
32761;BME280;19126;47.472;7.850;2023-11-22T05:09:13;96959.81;;;5.53;21.92
32761;BME280;19126;47.472;7.850;2023-11-22T05:11:42;96966.53;;;5.56;22.10
32761;BME280;19126;47.472;7.850;2023-11-22T05:14:10;96961.34;;;5.56;21.99
32761;BME280;19126;47.472;7.850;2023-11-22T05:16:40;96969.69;;;5.50;22.21
32761;BME280;19126;47.472;7.850;2023-11-22T05:19:08;96979.16;;;5.51;21.74
32761;BME280;19126;47.472;7.850;2023-11-22T05:21:36;96974.91;;;5.50;22.08
32761;BME280;19126;47.472;7.850;2023-11-22T05:24:04;96988.72;;;5.50;21.87
32761;BME280;19126;47.472;7.850;2023-11-22T05:26:33;96980.22;;;5.48;21.89
32761;BME280;19126;47.472;7.850;2023-11-22T05:29:01;96991.34;;;5.50;22.00
32761;BME280;19126;47.472;7.850;2023-11-22T05:31:31;96990.66;;;5.48;21.90
32761;BME280;19126;47.472;7.850;2023-11-22T05:34:00;96994.50;;;5.54;21.57
32761;BME280;19126;47.472;7.850;2023-11-22T05:36:28;96995.31;;;5.54;21.99
32761;BME280;19126;47.472;7.850;2023-11-22T05:38:56;97008.94;;;5.68;21.50
32761;BME280;19126;47.472;7.850;2023-11-22T05:41:25;96989.72;;;5.59;22.18
32761;BME280;19126;47.472;7.850;2023-11-22T05:43:53;97008.09;;;5.57;21.98
32761;BME280;19126;47.472;7.850;2023-11-22T05:46:22;97011.81;;;5.55;22.25
32761;BME280;19126;47.472;7.850;2023-11-22T05:48:51;97014.84;;;5.60;22.17
32761;BME280;19126;47.472;7.850;2023-11-22T05:51:19;97012.59;;;5.55;22.24
32761;BME280;19126;47.472;7.850;2023-11-22T05:53:47;97009.50;;;5.71;22.49
32761;BME280;19126;47.472;7.850;2023-11-22T05:56:15;97023.75;;;5.67;23.26
32761;BME280;19126;47.472;7.850;2023-11-22T05:58:43;97034.84;;;5.60;23.67
32761;BME280;19126;47.472;7.850;2023-11-22T06:01:10;97041.09;;;5.47;24.73
32761;BME280;19126;47.472;7.850;2023-11-22T06:03:38;97044.94;;;5.43;24.56
32761;BME280;19126;47.472;7.850;2023-11-22T06:06:06;97045.78;;;5.43;25.68
32761;BME280;19126;47.472;7.850;2023-11-22T06:08:36;97045.16;;;5.30;26.31
32761;BME280;19126;47.472;7.850;2023-11-22T06:11:03;97037.94;;;5.12;27.10
32761;BME280;19126;47.472;7.850;2023-11-22T06:13:31;97042.25;;;5.02;28.05
32761;BME280;19126;47.472;7.850;2023-11-22T06:15:59;97051.88;;;5.02;29.09
32761;BME280;19126;47.472;7.850;2023-11-22T06:18:26;97039.47;;;4.94;29.54
32761;BME280;19126;47.472;7.850;2023-11-22T06:20:56;97048.75;;;4.87;30.53
32761;BME280;19126;47.472;7.850;2023-11-22T06:23:24;97055.06;;;4.84;31.13
32761;BME280;19126;47.472;7.850;2023-11-22T06:25:53;97060.06;;;4.76;31.38
32761;BME280;19126;47.472;7.850;2023-11-22T06:28:20;97059.38;;;4.74;31.70
32761;BME280;19126;47.472;7.850;2023-11-22T06:30:48;97055.03;;;4.63;33.03
32761;BME280;19126;47.472;7.850;2023-11-22T06:33:16;97048.69;;;4.55;33.21
32761;BME280;19126;47.472;7.850;2023-11-22T06:35:45;97068.22;;;4.50;33.53
32761;BME280;19126;47.472;7.850;2023-11-22T06:38:13;97071.09;;;4.47;33.88
32761;BME280;19126;47.472;7.850;2023-11-22T06:40:41;97084.59;;;4.40;35.04
32761;BME280;19126;47.472;7.850;2023-11-22T06:43:10;97074.53;;;4.36;35.43
32761;BME280;19126;47.472;7.850;2023-11-22T06:45:38;97093.25;;;4.30;36.08
32761;BME280;19126;47.472;7.850;2023-11-22T06:48:06;97097.75;;;4.28;35.58
32761;BME280;19126;47.472;7.850;2023-11-22T06:50:33;97104.13;;;4.23;35.61
32761;BME280;19126;47.472;7.850;2023-11-22T06:53:01;97110.53;;;4.19;36.05
32761;BME280;19126;47.472;7.850;2023-11-22T06:55:30;97124.47;;;4.18;35.73
32761;BME280;19126;47.472;7.850;2023-11-22T06:57:59;97117.88;;;4.14;36.72
32761;BME280;19126;47.472;7.850;2023-11-22T07:00:28;97116.84;;;4.05;37.15
32761;BME280;19126;47.472;7.850;2023-11-22T07:02:57;97129.22;;;4.02;37.32
32761;BME280;19126;47.472;7.850;2023-11-22T07:05:28;97136.81;;;3.93;37.90
32761;BME280;19126;47.472;7.850;2023-11-22T07:07:56;97131.13;;;3.88;38.43
32761;BME280;19126;47.472;7.850;2023-11-22T07:10:23;97137.63;;;3.94;38.30
32761;BME280;19126;47.472;7.850;2023-11-22T07:12:51;97145.19;;;3.86;39.57
32761;BME280;19126;47.472;7.850;2023-11-22T07:15:18;97144.38;;;3.85;39.19
32761;BME280;19126;47.472;7.850;2023-11-22T07:17:48;97148.84;;;3.83;39.40
32761;BME280;19126;47.472;7.850;2023-11-22T07:20:16;97159.59;;;3.78;40.77
32761;BME280;19126;47.472;7.850;2023-11-22T07:22:44;97150.50;;;3.73;39.68
32761;BME280;19126;47.472;7.850;2023-11-22T07:25:12;97156.66;;;3.72;40.04
32761;BME280;19126;47.472;7.850;2023-11-22T07:27:45;97164.69;;;3.69;40.46
32761;BME280;19126;47.472;7.850;2023-11-22T07:30:14;97170.47;;;3.72;39.77
32761;BME280;19126;47.472;7.850;2023-11-22T07:32:42;97172.94;;;3.74;39.79
32761;BME280;19126;47.472;7.850;2023-11-22T07:35:12;97174.00;;;3.71;40.86
32761;BME280;19126;47.472;7.850;2023-11-22T07:37:39;97178.03;;;3.75;40.52
32761;BME280;19126;47.472;7.850;2023-11-22T07:40:09;97180.03;;;3.72;41.01
32761;BME280;19126;47.472;7.850;2023-11-22T07:42:39;97186.75;;;3.74;42.59
32761;BME280;19126;47.472;7.850;2023-11-22T07:45:08;97188.06;;;3.69;44.29
32761;BME280;19126;47.472;7.850;2023-11-22T07:47:38;97195.38;;;3.63;45.43
32761;BME280;19126;47.472;7.850;2023-11-22T07:50:08;97190.19;;;3.63;45.19
32761;BME280;19126;47.472;7.850;2023-11-22T07:52:39;97198.78;;;3.64;45.39
32761;BME280;19126;47.472;7.850;2023-11-22T07:55:08;97199.25;;;3.58;47.01
32761;BME280;19126;47.472;7.850;2023-11-22T07:57:37;97202.69;;;3.58;48.87
32761;BME280;19126;47.472;7.850;2023-11-22T08:00:06;97212.00;;;3.61;50.65
32761;BME280;19126;47.472;7.850;2023-11-22T08:02:35;97208.00;;;3.57;54.36
32761;BME280;19126;47.472;7.850;2023-11-22T08:05:05;97219.91;;;3.48;56.93
32761;BME280;19126;47.472;7.850;2023-11-22T08:07:34;97224.28;;;3.47;61.30
32761;BME280;19126;47.472;7.850;2023-11-22T08:10:08;97234.75;;;3.34;64.20
32761;BME280;19126;47.472;7.850;2023-11-22T08:12:41;97239.06;;;3.22;67.66
32761;BME280;19126;47.472;7.850;2023-11-22T08:15:09;97254.44;;;3.26;70.68
32761;BME280;19126;47.472;7.850;2023-11-22T08:17:38;97262.31;;;3.13;74.33
32761;BME280;19126;47.472;7.850;2023-11-22T08:20:07;97267.00;;;3.07;75.48
32761;BME280;19126;47.472;7.850;2023-11-22T08:22:38;97262.13;;;3.03;76.60
32761;BME280;19126;47.472;7.850;2023-11-22T08:25:08;97267.53;;;3.00;77.21
32761;BME280;19126;47.472;7.850;2023-11-22T08:27:39;97272.72;;;3.00;78.57
32761;BME280;19126;47.472;7.850;2023-11-22T08:30:08;97279.91;;;2.96;78.81
32761;BME280;19126;47.472;7.850;2023-11-22T08:32:40;97281.16;;;2.90;78.82
32761;BME280;19126;47.472;7.850;2023-11-22T08:35:09;97285.63;;;2.88;78.31
32761;BME280;19126;47.472;7.850;2023-11-22T08:37:40;97279.94;;;2.83;77.06
32761;BME280;19126;47.472;7.850;2023-11-22T08:40:11;97283.53;;;2.93;76.40
32761;BME280;19126;47.472;7.850;2023-11-22T08:42:40;97279.00;;;2.84;75.58
32761;BME280;19126;47.472;7.850;2023-11-22T08:45:10;97283.25;;;2.85;75.40
32761;BME280;19126;47.472;7.850;2023-11-22T08:47:39;97279.84;;;2.85;74.31
32761;BME280;19126;47.472;7.850;2023-11-22T08:50:08;97282.94;;;2.90;74.21
32761;BME280;19126;47.472;7.850;2023-11-22T08:52:37;97280.06;;;2.82;74.60
32761;BME280;19126;47.472;7.850;2023-11-22T08:55:06;97285.84;;;2.85;74.26
32761;BME280;19126;47.472;7.850;2023-11-22T08:57:38;97276.63;;;2.81;75.29
32761;BME280;19126;47.472;7.850;2023-11-22T09:00:08;97291.25;;;2.82;75.27
32761;BME280;19126;47.472;7.850;2023-11-22T09:02:37;97284.81;;;2.88;75.40
32761;BME280;19126;47.472;7.850;2023-11-22T09:05:06;97285.84;;;2.85;76.13
32761;BME280;19126;47.472;7.850;2023-11-22T09:07:35;97297.19;;;2.84;76.29
32761;BME280;19126;47.472;7.850;2023-11-22T09:10:05;97291.25;;;2.82;75.92
32761;BME280;19126;47.472;7.850;2023-11-22T09:12:37;97294.50;;;2.86;76.73
32761;BME280;19126;47.472;7.850;2023-11-22T09:15:06;97301.34;;;2.87;76.73
32761;BME280;19126;47.472;7.850;2023-11-22T09:17:37;97311.66;;;2.75;76.52
32761;BME280;19126;47.472;7.850;2023-11-22T09:20:09;97309.78;;;2.77;77.13
32761;BME280;19126;47.472;7.850;2023-11-22T09:22:42;97305.59;;;2.75;76.60
32761;BME280;19126;47.472;7.850;2023-11-22T09:25:21;97316.31;;;2.70;76.40
32761;BME280;19126;47.472;7.850;2023-11-22T09:27:53;97317.88;;;2.60;76.95
32761;BME280;19126;47.472;7.850;2023-11-22T09:30:23;97327.22;;;2.62;76.84
32761;BME280;19126;47.472;7.850;2023-11-22T09:33:01;97329.19;;;2.72;76.01
32761;BME280;19126;47.472;7.850;2023-11-22T09:35:29;97333.34;;;2.74;76.17
32761;BME280;19126;47.472;7.850;2023-11-22T09:37:57;97319.53;;;2.74;75.42
32761;BME280;19126;47.472;7.850;2023-11-22T09:40:26;97318.16;;;2.81;74.79
32761;BME280;19126;47.472;7.850;2023-11-22T09:42:56;97318.88;;;2.83;74.08
32761;BME280;19126;47.472;7.850;2023-11-22T09:45:23;97315.34;;;2.84;74.12
32761;BME280;19126;47.472;7.850;2023-11-22T09:47:52;97317.63;;;2.89;73.96
32761;BME280;19126;47.472;7.850;2023-11-22T09:50:23;97324.50;;;2.77;75.24
32761;BME280;19126;47.472;7.850;2023-11-22T09:52:52;97322.13;;;2.74;75.26
32761;BME280;19126;47.472;7.850;2023-11-22T09:55:28;97327.94;;;2.77;77.08
32761;BME280;19126;47.472;7.850;2023-11-22T09:57:59;97333.22;;;2.76;76.28
32761;BME280;19126;47.472;7.850;2023-11-22T10:00:29;97333.41;;;2.86;76.87
32761;BME280;19126;47.472;7.850;2023-11-22T10:02:58;97330.31;;;2.81;76.91
32761;BME280;19126;47.472;7.850;2023-11-22T10:05:25;97336.94;;;2.85;79.61
32761;BME280;19126;47.472;7.850;2023-11-22T10:07:54;97344.44;;;2.76;81.35
32761;BME280;19126;47.472;7.850;2023-11-22T10:10:22;97348.41;;;2.69;82.41
32761;BME280;19126;47.472;7.850;2023-11-22T10:12:54;97338.09;;;2.68;81.33
32761;BME280;19126;47.472;7.850;2023-11-22T10:15:28;97336.56;;;2.65;80.91
32761;BME280;19126;47.472;7.850;2023-11-22T10:17:56;97345.78;;;2.69;83.53
32761;BME280;19126;47.472;7.850;2023-11-22T10:20:25;97340.50;;;2.58;86.07
32761;BME280;19126;47.472;7.850;2023-11-22T10:22:53;97344.66;;;2.60;86.98
32761;BME280;19126;47.472;7.850;2023-11-22T10:25:21;97344.97;;;2.56;86.75
32761;BME280;19126;47.472;7.850;2023-11-22T10:27:49;97347.47;;;2.57;86.92
32761;BME280;19126;47.472;7.850;2023-11-22T10:30:18;97343.22;;;2.56;85.61
32761;BME280;19126;47.472;7.850;2023-11-22T10:32:48;97354.09;;;2.61;85.00
32761;BME280;19126;47.472;7.850;2023-11-22T10:35:16;97355.97;;;2.59;85.45
32761;BME280;19126;47.472;7.850;2023-11-22T10:37:44;97350.28;;;2.54;84.29
32761;BME280;19126;47.472;7.850;2023-11-22T10:40:13;97347.66;;;2.54;83.46
32761;BME280;19126;47.472;7.850;2023-11-22T10:42:42;97349.63;;;2.63;82.46
32761;BME280;19126;47.472;7.850;2023-11-22T10:45:10;97341.53;;;2.68;82.86
32761;BME280;19126;47.472;7.850;2023-11-22T10:47:40;97345.78;;;2.69;83.10
32761;BME280;19126;47.472;7.850;2023-11-22T10:50:10;97336.66;;;2.63;84.59
32761;BME280;19126;47.472;7.850;2023-11-22T10:52:42;97335.72;;;2.64;84.43
32761;BME280;19126;47.472;7.850;2023-11-22T10:55:12;97338.31;;;2.64;83.54
32761;BME280;19126;47.472;7.850;2023-11-22T10:57:45;97348.06;;;2.61;82.75
32761;BME280;19126;47.472;7.850;2023-11-22T11:00:16;97347.97;;;2.62;82.16
32761;BME280;19126;47.472;7.850;2023-11-22T11:02:54;97342.66;;;2.64;81.03
32761;BME280;19126;47.472;7.850;2023-11-22T11:05:30;97342.78;;;2.62;79.96
32761;BME280;19126;47.472;7.850;2023-11-22T11:08:02;97346.09;;;2.64;78.74
32761;BME280;19126;47.472;7.850;2023-11-22T11:10:39;97345.88;;;2.68;77.04
32761;BME280;19126;47.472;7.850;2023-11-22T11:13:07;97348.78;;;2.76;76.93
32761;BME280;19126;47.472;7.850;2023-11-22T11:15:35;97364.13;;;2.79;77.15
32761;BME280;19126;47.472;7.850;2023-11-22T11:18:03;97366.44;;;2.84;76.78
32761;BME280;19126;47.472;7.850;2023-11-22T11:20:46;97360.69;;;2.91;76.07
32761;BME280;19126;47.472;7.850;2023-11-22T11:23:16;97359.66;;;2.94;76.17
32761;BME280;19126;47.472;7.850;2023-11-22T11:25:47;97364.13;;;2.92;78.69
32761;BME280;19126;47.472;7.850;2023-11-22T11:28:15;97365.88;;;2.91;79.16
32761;BME280;19126;47.472;7.850;2023-11-22T11:30:44;97376.75;;;2.97;79.55
32761;BME280;19126;47.472;7.850;2023-11-22T11:33:15;97381.44;;;3.04;80.23
32761;BME280;19126;47.472;7.850;2023-11-22T11:35:47;97383.47;;;3.12;79.78
32761;BME280;19126;47.472;7.850;2023-11-22T11:38:16;97385.63;;;3.18;80.85
32761;BME280;19126;47.472;7.850;2023-11-22T11:40:48;97387.19;;;3.21;81.62
32761;BME280;19126;47.472;7.850;2023-11-22T11:43:20;97385.84;;;3.15;82.71
32761;BME280;19126;47.472;7.850;2023-11-22T11:45:48;97385.34;;;3.10;83.66
32761;BME280;19126;47.472;7.850;2023-11-22T11:48:17;97382.75;;;3.10;84.30
32761;BME280;19126;47.472;7.850;2023-11-22T11:50:47;97374.34;;;3.06;85.01
32761;BME280;19126;47.472;7.850;2023-11-22T11:53:19;97373.50;;;3.06;86.13
32761;BME280;19126;47.472;7.850;2023-11-22T11:55:47;97376.88;;;2.95;87.93
32761;BME280;19126;47.472;7.850;2023-11-22T11:58:17;97384.44;;;2.98;87.74
32761;BME280;19126;47.472;7.850;2023-11-22T12:00:45;97383.09;;;2.92;87.24
32761;BME280;19126;47.472;7.850;2023-11-22T12:03:13;97384.03;;;2.91;87.78
32761;BME280;19126;47.472;7.850;2023-11-22T12:05:48;97391.66;;;2.82;86.56
32761;BME280;19126;47.472;7.850;2023-11-22T12:08:19;97398.59;;;2.81;86.49
32761;BME280;19126;47.472;7.850;2023-11-22T12:10:47;97403.16;;;2.77;87.65
32761;BME280;19126;47.472;7.850;2023-11-22T12:13:17;97394.25;;;2.69;87.34
32761;BME280;19126;47.472;7.850;2023-11-22T12:15:46;97401.81;;;2.72;86.84
32761;BME280;19126;47.472;7.850;2023-11-22T12:18:14;97395.69;;;2.73;85.36
32761;BME280;19126;47.472;7.850;2023-11-22T12:20:42;97399.66;;;2.78;85.30
32761;BME280;19126;47.472;7.850;2023-11-22T12:23:11;97397.47;;;2.72;85.15
32761;BME280;19126;47.472;7.850;2023-11-22T12:25:39;97391.44;;;2.72;84.78
32761;BME280;19126;47.472;7.850;2023-11-22T12:28:07;97386.66;;;2.66;85.03
32761;BME280;19126;47.472;7.850;2023-11-22T12:30:35;97397.25;;;2.62;84.45
32761;BME280;19126;47.472;7.850;2023-11-22T12:33:06;97388.75;;;2.60;82.79
32761;BME280;19126;47.472;7.850;2023-11-22T12:35:35;97402.97;;;2.68;82.42
32761;BME280;19126;47.472;7.850;2023-11-22T12:38:05;97406.91;;;2.60;83.53
32761;BME280;19126;47.472;7.850;2023-11-22T12:40:34;97414.47;;;2.51;84.91
32761;BME280;19126;47.472;7.850;2023-11-22T12:43:03;97425.38;;;2.43;85.18
32761;BME280;19126;47.472;7.850;2023-11-22T12:45:32;97429.41;;;2.47;83.49
32761;BME280;19126;47.472;7.850;2023-11-22T12:48:20;97427.75;;;2.46;83.94
32761;BME280;19126;47.472;7.850;2023-11-22T12:50:50;97431.59;;;2.40;83.81
32761;BME280;19126;47.472;7.850;2023-11-22T12:53:19;97433.75;;;2.46;83.71
32761;BME280;19126;47.472;7.850;2023-11-22T12:55:51;97432.94;;;2.46;84.48
32761;BME280;19126;47.472;7.850;2023-11-22T12:58:20;97443.53;;;2.56;82.26
32761;BME280;19126;47.472;7.850;2023-11-22T13:00:49;97456.50;;;2.56;82.66
32761;BME280;19126;47.472;7.850;2023-11-22T13:03:17;97446.44;;;2.51;81.86
32761;BME280;19126;47.472;7.850;2023-11-22T13:05:46;97452.03;;;2.45;81.36
32761;BME280;19126;47.472;7.850;2023-11-22T13:08:14;97450.25;;;2.45;81.40
32761;BME280;19126;47.472;7.850;2023-11-22T13:10:44;97444.25;;;2.45;80.40
32761;BME280;19126;47.472;7.850;2023-11-22T13:13:16;97449.25;;;2.48;79.12
32761;BME280;19126;47.472;7.850;2023-11-22T13:15:43;97454.94;;;2.53;79.67
32761;BME280;19126;47.472;7.850;2023-11-22T13:18:11;97465.41;;;2.52;79.08
32761;BME280;19126;47.472;7.850;2023-11-22T13:20:39;97461.78;;;2.54;78.06